createdAt,value
2022-11-19T00:02:08.707Z,7.97
2022-11-19T00:04:38.366Z,7.67
2022-11-19T00:07:06.761Z,8.33
2022-11-19T00:09:36.493Z,8.93
2022-11-19T00:12:22.403Z,7.60
2022-11-19T00:14:51.091Z,8.47
2022-11-19T00:17:19.343Z,8.07
2022-11-19T00:19:48.775Z,7.63
2022-11-19T00:22:16.987Z,5.77
2022-11-19T00:24:45.364Z,8.70
2022-11-19T00:27:13.582Z,10.73
2022-11-19T00:29:41.988Z,11.10
2022-11-19T00:32:10.694Z,6.30
2022-11-19T00:34:38.956Z,6.37
2022-11-19T00:37:08.624Z,6.17
2022-11-19T00:39:36.887Z,7.57
2022-11-19T00:42:05.644Z,8.03
2022-11-19T00:44:37.116Z,9.87
2022-11-19T00:47:05.778Z,6.30
2022-11-19T00:49:34.087Z,6.97
2022-11-19T00:52:02.617Z,8.57
2022-11-19T00:54:32.720Z,9.93
2022-11-19T00:57:00.961Z,9.47
2022-11-19T00:59:29.412Z,9.33
2022-11-19T01:01:57.818Z,7.07
2022-11-19T01:04:26.268Z,9.33
2022-11-19T01:06:54.629Z,9.77
2022-11-19T01:09:22.989Z,5.63
2022-11-19T01:11:52.830Z,5.13
2022-11-19T01:14:21.413Z,5.93
2022-11-19T01:16:49.969Z,6.07
2022-11-19T01:19:18.647Z,3.67
2022-11-19T01:21:47.333Z,7.83
2022-11-19T01:24:15.717Z,11.30
2022-11-19T01:26:46.044Z,7.40
2022-11-19T01:29:16.332Z,9.10
2022-11-19T01:31:44.815Z,9.73
2022-11-19T01:34:13.500Z,9.20
2022-11-19T01:36:41.671Z,10.67
2022-11-19T01:39:10.085Z,5.33
2022-11-19T01:41:38.470Z,9.23
2022-11-19T01:44:07.712Z,8.13
2022-11-19T01:46:38.795Z,10.17
2022-11-19T01:49:11.536Z,7.47
2022-11-19T01:51:42.522Z,11.13
2022-11-19T01:54:18.162Z,8.53
2022-11-19T01:56:46.481Z,11.13
2022-11-19T01:59:18.054Z,6.43
2022-11-19T02:01:47.935Z,10.37
2022-11-19T02:04:19.059Z,4.83
2022-11-19T02:06:48.165Z,8.10
2022-11-19T02:09:16.757Z,9.93
2022-11-19T02:12:12.750Z,6.50
2022-11-19T02:14:55.198Z,5.17
2022-11-19T02:17:36.844Z,13.30
2022-11-19T02:20:44.133Z,8.87
2022-11-19T02:23:46.567Z,5.53
2022-11-19T02:26:59.116Z,7.87
2022-11-19T02:29:59.065Z,7.73
2022-11-19T02:32:32.808Z,8.80
2022-11-19T02:35:07.624Z,8.90
2022-11-19T02:37:44.591Z,5.43
2022-11-19T02:40:20.583Z,5.20
2022-11-19T02:42:55.609Z,9.33
2022-11-19T02:45:29.866Z,6.17
2022-11-19T02:48:01.321Z,8.37
2022-11-19T02:50:34.344Z,7.97
2022-11-19T02:53:05.062Z,7.87
2022-11-19T02:55:33.568Z,8.47
2022-11-19T02:58:07.096Z,8.13
2022-11-19T03:01:01.535Z,11.83
2022-11-19T03:03:49.203Z,13.27
2022-11-19T03:06:21.334Z,8.40
2022-11-19T03:08:49.755Z,7.27
2022-11-19T03:11:22.379Z,11.53
2022-11-19T03:14:13.764Z,4.30
2022-11-19T03:16:50.437Z,7.90
2022-11-19T03:19:30.640Z,4.03
2022-11-19T03:22:06.177Z,7.50
2022-11-19T03:24:38.047Z,10.43
2022-11-19T03:27:11.193Z,8.27
2022-11-19T03:29:44.986Z,9.80
2022-11-19T03:32:18.958Z,7.43
2022-11-19T03:34:51.871Z,7.67
2022-11-19T03:37:24.250Z,11.67
2022-11-19T03:39:54.386Z,5.50
2022-11-19T03:42:27.058Z,6.60
2022-11-19T03:45:00.927Z,4.37
2022-11-19T03:47:34.288Z,7.07
2022-11-19T03:50:06.490Z,9.73
2022-11-19T03:52:34.965Z,4.33
2022-11-19T03:55:03.505Z,8.37
2022-11-19T03:57:31.913Z,8.50
2022-11-19T04:00:00.203Z,9.90
2022-11-19T04:02:28.721Z,7.73
2022-11-19T04:04:58.226Z,6.27
2022-11-19T04:07:26.561Z,8.40
2022-11-19T04:09:54.837Z,8.57
2022-11-19T04:12:24.655Z,10.83
2022-11-19T04:14:53.792Z,12.97
2022-11-19T04:17:22.228Z,6.87
2022-11-19T04:19:50.653Z,11.90
2022-11-19T04:22:20.317Z,9.83
2022-11-19T04:24:48.856Z,5.80
2022-11-19T04:27:17.134Z,11.80
2022-11-19T04:29:45.560Z,10.30
2022-11-19T04:32:14.245Z,5.07
2022-11-19T04:34:42.585Z,10.20
2022-11-19T04:37:11.079Z,9.67
2022-11-19T04:39:40.621Z,10.17
2022-11-19T04:42:08.972Z,7.10
2022-11-19T04:44:37.410Z,10.70
2022-11-19T04:47:05.823Z,8.50
2022-11-19T04:49:34.210Z,10.47
2022-11-19T04:52:02.501Z,10.53
2022-11-19T04:54:31.149Z,9.80
2022-11-19T04:57:00.716Z,9.23
2022-11-19T04:59:28.984Z,9.50
2022-11-19T05:01:57.448Z,10.87
2022-11-19T05:04:25.848Z,10.13
2022-11-19T05:06:54.064Z,9.97
2022-11-19T05:09:22.521Z,7.43
2022-11-19T05:11:50.938Z,7.10
2022-11-19T05:14:22.786Z,8.17
2022-11-19T05:16:53.250Z,8.33
2022-11-19T05:19:21.705Z,9.67
2022-11-19T05:21:50.204Z,6.80
2022-11-19T05:24:18.558Z,9.47
2022-11-19T05:26:46.903Z,10.40
2022-11-19T05:29:15.178Z,8.17
2022-11-19T05:31:44.673Z,8.43
2022-11-19T05:34:13.380Z,10.73
2022-11-19T05:36:41.784Z,9.27
2022-11-19T05:39:10.280Z,10.37
2022-11-19T05:41:38.468Z,9.00
2022-11-19T05:44:07.315Z,8.70
2022-11-19T05:46:35.675Z,10.57
2022-11-19T05:49:05.636Z,11.10
2022-11-19T05:51:33.897Z,8.43
2022-11-19T05:54:02.542Z,7.73
2022-11-19T05:56:30.801Z,8.30
2022-11-19T05:58:59.157Z,5.27
2022-11-19T06:01:28.000Z,10.23
2022-11-19T06:03:56.685Z,9.13
2022-11-19T06:06:26.608Z,9.47
2022-11-19T06:08:54.847Z,7.43
2022-11-19T06:11:40.619Z,6.87
2022-11-19T06:14:09.259Z,12.90
2022-11-19T06:16:37.471Z,11.63
2022-11-19T06:19:05.998Z,8.23
2022-11-19T06:21:35.509Z,9.07
2022-11-19T06:24:03.955Z,6.73
2022-11-19T06:26:32.340Z,9.13
2022-11-19T06:29:00.765Z,12.03
2022-11-19T06:31:29.178Z,7.50
2022-11-19T06:33:57.745Z,12.73
2022-11-19T06:36:27.770Z,13.27
2022-11-19T06:38:57.574Z,7.13
2022-11-19T06:41:25.861Z,11.53
2022-11-19T06:43:54.281Z,9.23
2022-11-19T06:46:22.554Z,8.67
2022-11-19T06:48:50.830Z,8.37
2022-11-19T06:51:19.069Z,7.83
2022-11-19T06:53:47.767Z,7.77
2022-11-19T06:56:17.418Z,6.60
2022-11-19T06:58:45.860Z,6.97
2022-11-19T07:01:15.431Z,8.17
2022-11-19T07:03:44.062Z,7.83
2022-11-19T07:06:12.762Z,10.07
2022-11-19T07:08:40.997Z,8.73
2022-11-19T07:11:23.337Z,6.10
2022-11-19T07:13:59.843Z,7.23
2022-11-19T07:16:30.191Z,12.77
2022-11-19T07:18:59.611Z,4.57
2022-11-19T07:21:29.048Z,9.23
2022-11-19T07:23:57.738Z,9.40
2022-11-19T07:26:26.717Z,10.77
2022-11-19T07:28:59.423Z,12.77
2022-11-19T07:31:30.333Z,8.83
2022-11-19T07:33:59.182Z,9.90
2022-11-19T07:36:27.713Z,5.83
2022-11-19T07:38:56.072Z,7.13
2022-11-19T07:41:41.957Z,7.33
2022-11-19T07:44:11.833Z,7.17
2022-11-19T07:46:41.066Z,4.90
2022-11-19T07:49:09.450Z,5.80
2022-11-19T07:51:37.701Z,8.90
2022-11-19T07:54:06.361Z,7.50
2022-11-19T07:56:34.653Z,7.60
2022-11-19T07:59:02.929Z,5.23
2022-11-19T08:01:32.890Z,3.60
2022-11-19T08:04:02.252Z,7.20
2022-11-19T08:06:30.980Z,6.33
2022-11-19T08:08:59.264Z,9.57
2022-11-19T08:11:27.677Z,7.73
2022-11-19T08:13:56.361Z,8.23
2022-11-19T08:16:41.981Z,7.17
2022-11-19T08:19:15.417Z,12.37
2022-11-19T08:21:45.229Z,9.20
2022-11-19T08:24:14.469Z,10.57
2022-11-19T08:26:43.146Z,8.70
2022-11-19T08:29:16.287Z,6.57
2022-11-19T08:31:46.717Z,9.80
2022-11-19T08:34:16.641Z,8.57
2022-11-19T08:36:45.314Z,6.20
2022-11-19T08:39:13.697Z,6.03
2022-11-19T08:41:55.909Z,7.87
2022-11-19T08:44:24.314Z,6.40
2022-11-19T08:46:52.719Z,9.47
2022-11-19T08:49:22.258Z,8.80
2022-11-19T08:51:50.654Z,6.80
2022-11-19T08:54:19.788Z,10.43
2022-11-19T08:56:48.588Z,4.93
2022-11-19T08:59:17.117Z,5.40
2022-11-19T09:01:45.653Z,7.93
2022-11-19T09:04:13.906Z,6.67
2022-11-19T09:06:43.450Z,6.73
2022-11-19T09:09:11.896Z,6.10
2022-11-19T09:11:42.844Z,5.93
2022-11-19T09:14:11.870Z,5.93
2022-11-19T09:16:42.592Z,5.90
2022-11-19T09:19:10.785Z,6.00
2022-11-19T09:21:39.165Z,7.03
2022-11-19T09:24:09.064Z,7.00
2022-11-19T09:26:37.361Z,11.40
2022-11-19T09:29:05.565Z,7.87
2022-11-19T09:31:33.930Z,8.43
2022-11-19T09:34:03.955Z,9.50
2022-11-19T09:36:35.730Z,9.87
2022-11-19T09:39:08.850Z,9.70
2022-11-19T09:41:49.667Z,9.90
2022-11-19T09:44:36.535Z,9.77
2022-11-19T09:47:24.215Z,11.73
2022-11-19T09:50:03.082Z,11.20
2022-11-19T09:52:34.464Z,14.37
2022-11-19T09:55:04.398Z,12.67
2022-11-19T09:57:38.221Z,13.00
2022-11-19T10:00:11.953Z,12.97
2022-11-19T10:02:40.449Z,14.00
2022-11-19T10:05:11.481Z,11.90
2022-11-19T10:07:51.192Z,13.03
2022-11-19T10:10:34.073Z,12.97
2022-11-19T10:13:28.937Z,13.03
2022-11-19T10:16:06.752Z,14.63
2022-11-19T10:18:43.541Z,16.03
2022-11-19T10:21:19.524Z,17.53
2022-11-19T10:23:52.849Z,17.43
2022-11-19T10:26:27.857Z,18.30
2022-11-19T10:28:57.791Z,16.70
2022-11-19T10:31:36.481Z,19.90
2022-11-19T10:34:11.977Z,17.57
2022-11-19T10:36:43.504Z,23.33
2022-11-19T10:39:19.389Z,17.07
2022-11-19T10:41:53.177Z,16.23
2022-11-19T10:44:40.438Z,17.63
2022-11-19T10:47:14.186Z,22.37
2022-11-19T10:49:43.824Z,20.33
2022-11-19T10:52:29.581Z,23.17
2022-11-19T10:55:04.138Z,22.47
2022-11-19T10:57:34.817Z,23.33
2022-11-19T11:00:03.848Z,23.20
2022-11-19T11:02:37.140Z,24.67
2022-11-19T11:05:11.858Z,23.63
2022-11-19T11:07:55.119Z,23.00
2022-11-19T11:10:36.314Z,22.90
2022-11-19T11:13:47.011Z,21.37
2022-11-19T11:16:18.304Z,22.57
2022-11-19T11:18:47.967Z,27.23
2022-11-19T11:21:31.272Z,25.07
2022-11-19T11:24:00.070Z,25.73
2022-11-19T11:26:30.673Z,29.07
2022-11-19T11:29:02.285Z,28.77
2022-11-19T11:31:33.635Z,30.57
2022-11-19T11:34:03.346Z,28.47
2022-11-19T11:36:33.512Z,27.87
2022-11-19T11:39:04.481Z,32.03
2022-11-19T11:44:33.401Z,32.50
2022-11-19T11:47:05.097Z,35.77
2022-11-19T11:49:36.647Z,33.13
2022-11-19T11:52:15.035Z,33.13
2022-11-19T11:54:59.302Z,35.17
2022-11-19T11:57:30.799Z,33.93
2022-11-19T12:00:00.816Z,36.13
2022-11-19T12:02:31.507Z,37.07
2022-11-19T12:05:03.493Z,35.93
2022-11-19T12:07:53.452Z,38.47
2022-11-19T12:10:27.710Z,37.70
2022-11-19T12:13:09.869Z,44.50
2022-11-19T12:15:53.110Z,38.87
2022-11-19T12:18:35.194Z,42.20
2022-11-19T12:21:11.732Z,45.57
2022-11-19T12:24:11.678Z,42.90
2022-11-19T12:26:48.692Z,42.57
2022-11-19T12:29:26.324Z,40.80
2022-11-19T12:32:08.670Z,39.53
2022-11-19T12:34:51.881Z,44.80
2022-11-19T12:37:34.639Z,40.10
2022-11-19T12:40:16.669Z,42.87
2022-11-19T12:42:53.524Z,42.23
2022-11-19T12:45:36.343Z,43.00
2022-11-19T12:48:27.223Z,39.77
2022-11-19T12:51:01.853Z,46.53
2022-11-19T12:53:43.984Z,42.33
2022-11-19T12:56:24.015Z,41.07
2022-11-19T12:59:03.630Z,41.80
2022-11-19T13:01:35.642Z,38.00
2022-11-19T13:04:12.695Z,43.20
2022-11-19T13:06:48.723Z,39.93
2022-11-19T13:09:21.998Z,44.93
2022-11-19T13:11:55.269Z,48.80
2022-11-19T13:14:30.124Z,46.93
2022-11-19T13:16:59.911Z,51.37
2022-11-19T13:19:33.240Z,51.43
2022-11-19T13:22:07.620Z,49.00
2022-11-19T13:24:40.617Z,52.60
2022-11-19T13:27:14.788Z,53.07
2022-11-19T13:29:49.193Z,59.13
2022-11-19T13:32:24.698Z,55.97
2022-11-19T13:35:03.774Z,55.77
2022-11-19T13:37:44.894Z,60.97
2022-11-19T13:40:22.470Z,59.13
2022-11-19T13:46:17.509Z,61.60
2022-11-19T13:48:49.719Z,63.83
2022-11-19T13:51:30.260Z,65.17
2022-11-19T13:54:03.373Z,64.73
2022-11-19T13:56:53.656Z,59.07
2022-11-19T13:59:32.506Z,63.77
2022-11-19T14:02:18.940Z,60.10
2022-11-19T14:05:03.882Z,60.87
2022-11-19T14:08:04.928Z,62.97
2022-11-19T14:10:38.315Z,64.53
2022-11-19T14:13:33.019Z,62.53
2022-11-19T14:16:33.413Z,69.40
2022-11-19T14:19:22.263Z,64.33
2022-11-19T14:22:10.887Z,63.77
2022-11-19T14:25:17.204Z,69.67
2022-11-19T14:27:46.247Z,69.67
2022-11-19T14:30:17.125Z,70.77
2022-11-19T14:32:48.714Z,71.27
2022-11-19T14:35:39.374Z,68.73
2022-11-19T14:38:37.072Z,67.50
2022-11-19T14:41:24.732Z,67.27
2022-11-19T14:44:09.999Z,70.47
2022-11-19T14:46:43.592Z,68.27
2022-11-19T14:49:41.512Z,72.27
2022-11-19T14:52:21.753Z,70.10
2022-11-19T14:54:56.350Z,69.17
2022-11-19T14:57:31.463Z,70.47
2022-11-19T15:00:02.506Z,70.40
2022-11-19T15:02:34.239Z,73.63
2022-11-19T15:05:07.908Z,70.70
2022-11-19T15:07:39.874Z,69.67
2022-11-19T15:10:30.886Z,70.27
2022-11-19T15:13:26.872Z,73.40
2022-11-19T15:15:58.920Z,73.63
2022-11-19T15:18:58.981Z,75.70
2022-11-19T15:21:54.119Z,77.57
2022-11-19T15:24:31.512Z,84.27
2022-11-19T15:27:12.390Z,78.60
2022-11-19T15:30:02.126Z,82.50
2022-11-19T15:32:45.588Z,77.90
2022-11-19T15:35:44.981Z,78.73
2022-11-19T15:38:27.252Z,84.93
2022-11-19T15:40:57.962Z,79.53
2022-11-19T15:43:31.585Z,87.17
2022-11-19T15:46:08.709Z,96.57
2022-11-19T15:48:48.575Z,93.97
2022-11-19T15:51:18.934Z,84.10
2022-11-19T15:54:00.361Z,86.07
2022-11-19T15:56:30.506Z,80.93
2022-11-19T15:58:59.950Z,89.97
2022-11-19T16:01:32.468Z,84.07
2022-11-19T16:04:04.982Z,80.10
2022-11-19T16:06:33.594Z,81.23
2022-11-19T16:09:04.805Z,83.70
2022-11-19T16:11:54.232Z,86.33
2022-11-19T16:14:42.663Z,82.83
2022-11-19T16:17:43.203Z,88.97
2022-11-19T16:20:23.187Z,84.97
2022-11-19T16:23:00.458Z,90.63
2022-11-19T16:25:34.369Z,92.47
2022-11-19T16:28:06.061Z,90.83
2022-11-19T16:30:46.110Z,92.13
2022-11-19T16:33:20.683Z,86.40
2022-11-19T16:35:52.812Z,93.33
2022-11-19T16:38:27.187Z,99.93
2022-11-19T16:41:23.716Z,92.10
2022-11-19T16:43:52.469Z,85.90
2022-11-19T16:46:23.396Z,86.43
2022-11-19T16:48:58.092Z,100.57
2022-11-19T16:51:37.893Z,95.00
2022-11-19T16:54:08.218Z,111.33
2022-11-19T16:56:41.007Z,108.90
2022-11-19T16:59:17.450Z,103.13
2022-11-19T17:01:55.912Z,102.10
2022-11-19T17:04:29.929Z,105.27
2022-11-19T17:06:58.897Z,115.57
2022-11-19T17:09:34.848Z,103.50
2022-11-19T17:12:21.331Z,122.30
2022-11-19T17:14:55.711Z,105.13
2022-11-19T17:17:40.796Z,119.20
2022-11-19T17:20:59.955Z,103.40
2022-11-19T17:23:34.827Z,105.33
2022-11-19T17:26:06.663Z,111.07
2022-11-19T17:28:40.809Z,104.70
2022-11-19T17:31:17.902Z,107.63
2022-11-19T17:33:54.940Z,110.47
2022-11-19T17:36:25.871Z,109.80
2022-11-19T17:38:55.698Z,106.97
2022-11-19T17:41:43.312Z,106.50
2022-11-19T17:44:33.799Z,92.80
2022-11-19T17:47:02.626Z,100.77
2022-11-19T17:49:31.346Z,104.97
2022-11-19T17:51:59.778Z,98.67
2022-11-19T17:54:31.136Z,99.27
2022-11-19T17:56:59.650Z,94.30
2022-11-19T17:59:28.163Z,96.10
2022-11-19T18:01:57.026Z,89.07
2022-11-19T18:04:26.616Z,89.37
2022-11-19T18:06:55.027Z,86.37
2022-11-19T18:09:23.743Z,85.07
2022-11-19T18:11:53.340Z,79.13
2022-11-19T18:14:22.112Z,86.33
2022-11-19T18:16:50.609Z,87.90
2022-11-19T18:19:26.513Z,88.97
2022-11-19T18:21:55.358Z,94.40
2022-11-19T18:24:24.272Z,82.90
2022-11-19T18:26:53.954Z,86.43
2022-11-19T18:29:23.079Z,85.43
2022-11-19T18:31:53.448Z,81.30
2022-11-19T18:34:24.602Z,89.67
2022-11-19T18:36:52.964Z,105.00
2022-11-19T18:39:21.591Z,93.97
2022-11-19T18:41:50.025Z,82.40
2022-11-19T18:44:33.789Z,83.20
2022-11-19T18:47:03.050Z,81.80
2022-11-19T18:49:33.636Z,82.10
2022-11-19T18:52:02.078Z,76.23
2022-11-19T18:54:30.747Z,76.77
2022-11-19T18:56:59.445Z,76.00
2022-11-19T18:59:30.006Z,75.03
2022-11-19T19:01:58.539Z,74.40
2022-11-19T19:04:26.837Z,70.23
2022-11-19T19:06:55.295Z,72.43
2022-11-19T19:09:23.936Z,73.90
2022-11-19T19:12:14.199Z,79.50
2022-11-19T19:14:44.430Z,79.97
2022-11-19T19:17:13.096Z,74.17
2022-11-19T19:19:42.007Z,78.73
2022-11-19T19:22:10.389Z,73.10
2022-11-19T19:24:39.107Z,72.10
2022-11-19T19:27:07.707Z,74.23
2022-11-19T19:29:36.126Z,72.77
2022-11-19T19:32:06.231Z,70.53
2022-11-19T19:34:36.071Z,96.90
2022-11-19T19:37:04.758Z,81.80
2022-11-19T19:39:33.078Z,80.40
2022-11-19T19:42:01.480Z,73.97
2022-11-19T19:44:30.018Z,70.83
2022-11-19T19:47:00.108Z,78.03
2022-11-19T19:49:32.438Z,82.70
2022-11-19T19:52:04.509Z,73.43
2022-11-19T19:54:32.917Z,71.03
2022-11-19T19:57:01.375Z,82.70
2022-11-19T19:59:30.061Z,77.40
2022-11-19T20:01:58.516Z,77.13
2022-11-19T20:04:27.297Z,69.73
2022-11-19T20:06:57.027Z,79.47
2022-11-19T20:09:25.465Z,102.83
2022-11-19T20:11:53.883Z,87.33
2022-11-19T20:14:22.623Z,84.97
2022-11-19T20:16:51.897Z,128.97
2022-11-19T20:19:20.512Z,101.87
2022-11-19T20:21:49.087Z,97.90
2022-11-19T20:24:20.362Z,104.10
2022-11-19T20:26:48.765Z,80.57
2022-11-19T20:29:17.859Z,78.67
2022-11-19T20:31:47.695Z,73.73
2022-11-19T20:34:17.220Z,76.37
2022-11-19T20:36:45.869Z,72.03
2022-11-19T20:39:14.575Z,70.40
2022-11-19T20:42:01.672Z,71.93
2022-11-19T20:44:30.494Z,69.30
2022-11-19T20:46:59.761Z,65.10
2022-11-19T20:49:29.409Z,64.57
2022-11-19T20:51:57.935Z,65.53
2022-11-19T20:54:27.105Z,68.33
2022-11-19T20:56:57.930Z,62.43
2022-11-19T20:59:26.825Z,70.37
2022-11-19T21:01:55.998Z,61.17
2022-11-19T21:04:25.953Z,59.00
2022-11-19T21:06:54.831Z,63.50
2022-11-19T21:09:23.489Z,56.07
2022-11-19T21:11:52.175Z,62.07
2022-11-19T21:14:21.838Z,57.03
2022-11-19T21:16:50.333Z,60.67
2022-11-19T21:19:19.180Z,63.00
2022-11-19T21:21:47.964Z,59.60
2022-11-19T21:24:16.371Z,62.83
2022-11-19T21:26:45.039Z,66.67
2022-11-19T21:29:16.304Z,62.87
2022-11-19T21:31:49.373Z,59.17
2022-11-19T21:34:20.536Z,64.43
2022-11-19T21:36:49.525Z,61.87
2022-11-19T21:39:19.209Z,60.83
2022-11-19T21:41:47.686Z,61.77
2022-11-19T21:44:21.057Z,56.83
2022-11-19T21:46:51.770Z,62.17
2022-11-19T21:49:20.615Z,63.03
2022-11-19T21:51:49.269Z,61.43
2022-11-19T21:54:18.898Z,59.47
2022-11-19T21:56:50.273Z,62.07
2022-11-19T21:59:18.815Z,70.03
2022-11-19T22:01:53.313Z,67.67
2022-11-19T22:04:24.445Z,62.30
2022-11-19T22:06:52.878Z,60.07
2022-11-19T22:09:21.719Z,69.43
2022-11-19T22:11:50.371Z,63.93
2022-11-19T22:14:19.063Z,70.57
2022-11-19T22:16:47.626Z,66.23
2022-11-19T22:19:16.174Z,66.33
2022-11-19T22:21:46.821Z,61.33
2022-11-19T22:24:15.225Z,65.87
2022-11-19T22:26:43.600Z,66.13
2022-11-19T22:29:12.030Z,58.83
2022-11-19T22:31:40.302Z,63.60
2022-11-19T22:34:08.851Z,65.97
2022-11-19T22:36:37.227Z,58.43
2022-11-19T22:39:07.301Z,65.40
2022-11-19T22:41:35.901Z,63.87
2022-11-19T22:44:05.202Z,60.87
2022-11-19T22:46:33.851Z,56.77
2022-11-19T22:49:02.253Z,60.27
2022-11-19T22:51:30.828Z,64.97
2022-11-19T22:53:59.450Z,55.87
2022-11-19T22:56:31.018Z,60.03
2022-11-19T22:58:59.689Z,60.87
2022-11-19T23:01:29.471Z,59.20
2022-11-19T23:04:00.097Z,61.60
2022-11-19T23:06:28.762Z,60.27
2022-11-19T23:08:57.174Z,58.53
2022-11-19T23:11:39.684Z,58.83
2022-11-19T23:14:11.779Z,59.77
2022-11-19T23:16:40.620Z,54.93
2022-11-19T23:19:10.000Z,55.60
2022-11-19T23:21:38.465Z,56.03
2022-11-19T23:24:07.181Z,55.60
2022-11-19T23:26:35.883Z,60.27
2022-11-19T23:29:04.296Z,57.37
2022-11-19T23:31:36.035Z,56.50
2022-11-19T23:34:04.939Z,58.27
2022-11-19T23:36:34.462Z,58.90
2022-11-19T23:39:02.893Z,54.93
2022-11-19T23:41:33.509Z,56.87
2022-11-19T23:44:02.306Z,55.83
2022-11-19T23:46:32.087Z,57.80
2022-11-19T23:49:03.229Z,61.10
2022-11-19T23:51:33.556Z,55.97
2022-11-19T23:54:02.522Z,51.17
2022-11-19T23:56:32.876Z,55.83
2022-11-19T23:59:01.929Z,58.10
